sensor_id;sensor_type;location;lat;lon;timestamp;P1;durP1;ratioP1;P2;durP2;ratioP2
77326;SDS011;66399;52.322;20.980;2023-05-29T00:03:08;6.90;;;3.00;;
77326;SDS011;66399;52.322;20.980;2023-05-29T00:07:15;5.50;;;2.70;;
77326;SDS011;66399;52.322;20.980;2023-05-29T00:11:21;7.00;;;2.90;;
77326;SDS011;66399;52.322;20.980;2023-05-29T00:15:27;6.40;;;2.40;;
77326;SDS011;66399;52.322;20.980;2023-05-29T00:19:32;6.20;;;2.90;;
77326;SDS011;66399;52.322;20.980;2023-05-29T00:23:37;6.50;;;2.70;;
77326;SDS011;66399;52.322;20.980;2023-05-29T00:27:43;6.70;;;3.10;;
77326;SDS011;66399;52.322;20.980;2023-05-29T00:31:48;5.60;;;2.70;;
77326;SDS011;66399;52.322;20.980;2023-05-29T00:35:54;6.10;;;2.60;;
77326;SDS011;66399;52.322;20.980;2023-05-29T00:39:59;7.20;;;2.90;;
77326;SDS011;66399;52.322;20.980;2023-05-29T00:44:04;8.60;;;3.00;;
77326;SDS011;66399;52.322;20.980;2023-05-29T00:48:10;8.00;;;3.00;;
77326;SDS011;66399;52.322;20.980;2023-05-29T00:52:15;4.60;;;2.40;;
77326;SDS011;66399;52.322;20.980;2023-05-29T00:56:21;6.40;;;2.60;;
77326;SDS011;66399;52.322;20.980;2023-05-29T01:00:26;8.10;;;3.00;;
77326;SDS011;66399;52.322;20.980;2023-05-29T01:04:34;8.80;;;3.00;;
77326;SDS011;66399;52.322;20.980;2023-05-29T01:08:40;5.70;;;2.80;;
77326;SDS011;66399;52.322;20.980;2023-05-29T01:12:47;7.10;;;3.40;;
77326;SDS011;66399;52.322;20.980;2023-05-29T01:16:55;8.80;;;3.00;;
77326;SDS011;66399;52.322;20.980;2023-05-29T01:21:09;5.40;;;2.80;;
77326;SDS011;66399;52.322;20.980;2023-05-29T01:25:19;5.90;;;2.80;;
77326;SDS011;66399;52.322;20.980;2023-05-29T01:29:26;6.30;;;3.20;;
77326;SDS011;66399;52.322;20.980;2023-05-29T01:33:32;7.60;;;2.90;;
77326;SDS011;66399;52.322;20.980;2023-05-29T01:37:37;6.60;;;3.20;;
77326;SDS011;66399;52.322;20.980;2023-05-29T01:45:46;6.30;;;2.70;;
77326;SDS011;66399;52.322;20.980;2023-05-29T01:53:55;6.20;;;2.70;;
77326;SDS011;66399;52.322;20.980;2023-05-29T02:02:07;5.90;;;2.50;;
77326;SDS011;66399;52.322;20.980;2023-05-29T02:06:13;7.60;;;2.60;;
77326;SDS011;66399;52.322;20.980;2023-05-29T02:10:18;6.50;;;3.30;;
77326;SDS011;66399;52.322;20.980;2023-05-29T02:18:28;6.30;;;2.80;;
77326;SDS011;66399;52.322;20.980;2023-05-29T02:22:33;6.60;;;2.70;;
77326;SDS011;66399;52.322;20.980;2023-05-29T02:26:39;5.60;;;2.80;;
77326;SDS011;66399;52.322;20.980;2023-05-29T02:30:44;5.50;;;3.20;;
77326;SDS011;66399;52.322;20.980;2023-05-29T02:38:53;8.80;;;3.20;;
77326;SDS011;66399;52.322;20.980;2023-05-29T02:42:58;7.70;;;3.50;;
77326;SDS011;66399;52.322;20.980;2023-05-29T02:51:07;6.40;;;3.30;;
77326;SDS011;66399;52.322;20.980;2023-05-29T02:55:13;6.50;;;3.70;;
77326;SDS011;66399;52.322;20.980;2023-05-29T02:59:19;7.10;;;3.10;;
77326;SDS011;66399;52.322;20.980;2023-05-29T03:03:24;5.40;;;2.90;;
77326;SDS011;66399;52.322;20.980;2023-05-29T03:07:30;5.60;;;3.10;;
77326;SDS011;66399;52.322;20.980;2023-05-29T03:15:39;6.50;;;3.30;;
77326;SDS011;66399;52.322;20.980;2023-05-29T03:23:49;7.80;;;2.80;;
77326;SDS011;66399;52.322;20.980;2023-05-29T03:31:58;6.80;;;2.70;;
77326;SDS011;66399;52.322;20.980;2023-05-29T03:36:04;7.20;;;3.10;;
77326;SDS011;66399;52.322;20.980;2023-05-29T03:40:12;7.00;;;3.40;;
77326;SDS011;66399;52.322;20.980;2023-05-29T03:44:17;6.20;;;2.80;;
77326;SDS011;66399;52.322;20.980;2023-05-29T03:48:23;6.60;;;3.00;;
77326;SDS011;66399;52.322;20.980;2023-05-29T03:56:32;6.60;;;2.90;;
77326;SDS011;66399;52.322;20.980;2023-05-29T04:00:39;7.80;;;3.20;;
77326;SDS011;66399;52.322;20.980;2023-05-29T04:04:44;6.70;;;3.40;;
77326;SDS011;66399;52.322;20.980;2023-05-29T04:12:54;6.50;;;2.90;;
77326;SDS011;66399;52.322;20.980;2023-05-29T04:16:59;6.60;;;3.20;;
77326;SDS011;66399;52.322;20.980;2023-05-29T04:21:04;7.00;;;3.40;;
77326;SDS011;66399;52.322;20.980;2023-05-29T04:25:10;8.30;;;2.90;;
77326;SDS011;66399;52.322;20.980;2023-05-29T04:29:15;8.80;;;3.00;;
77326;SDS011;66399;52.322;20.980;2023-05-29T04:33:21;8.30;;;3.20;;
77326;SDS011;66399;52.322;20.980;2023-05-29T04:37:27;7.30;;;3.10;;
77326;SDS011;66399;52.322;20.980;2023-05-29T04:41:33;9.30;;;3.40;;
77326;SDS011;66399;52.322;20.980;2023-05-29T04:45:39;9.60;;;3.90;;
77326;SDS011;66399;52.322;20.980;2023-05-29T04:49:45;8.80;;;3.60;;
77326;SDS011;66399;52.322;20.980;2023-05-29T04:53:54;5.80;;;3.30;;
77326;SDS011;66399;52.322;20.980;2023-05-29T04:57:59;9.20;;;3.50;;
77326;SDS011;66399;52.322;20.980;2023-05-29T05:02:05;8.80;;;2.90;;
77326;SDS011;66399;52.322;20.980;2023-05-29T05:06:11;8.30;;;4.00;;
77326;SDS011;66399;52.322;20.980;2023-05-29T05:14:32;7.90;;;3.70;;
77326;SDS011;66399;52.322;20.980;2023-05-29T05:18:38;7.30;;;3.30;;
77326;SDS011;66399;52.322;20.980;2023-05-29T05:26:58;10.10;;;3.40;;
77326;SDS011;66399;52.322;20.980;2023-05-29T05:31:03;6.20;;;2.70;;
77326;SDS011;66399;52.322;20.980;2023-05-29T05:43:23;6.30;;;2.60;;
77326;SDS011;66399;52.322;20.980;2023-05-29T05:51:43;6.00;;;2.60;;
77326;SDS011;66399;52.322;20.980;2023-05-29T05:55:48;4.80;;;2.30;;
77326;SDS011;66399;52.322;20.980;2023-05-29T06:04:10;10.00;;;3.50;;
77326;SDS011;66399;52.322;20.980;2023-05-29T06:08:15;8.50;;;3.00;;
77326;SDS011;66399;52.322;20.980;2023-05-29T06:12:28;6.40;;;3.10;;
77326;SDS011;66399;52.322;20.980;2023-05-29T06:16:33;6.30;;;2.60;;
77326;SDS011;66399;52.322;20.980;2023-05-29T06:20:39;6.20;;;2.40;;
77326;SDS011;66399;52.322;20.980;2023-05-29T06:33:21;13.40;;;3.40;;
77326;SDS011;66399;52.322;20.980;2023-05-29T06:37:28;14.00;;;3.10;;
77326;SDS011;66399;52.322;20.980;2023-05-29T06:45:47;11.30;;;2.80;;
77326;SDS011;66399;52.322;20.980;2023-05-29T06:49:52;6.60;;;2.20;;
77326;SDS011;66399;52.322;20.980;2023-05-29T06:58:12;5.20;;;1.90;;
77326;SDS011;66399;52.322;20.980;2023-05-29T07:02:17;6.30;;;2.60;;
77326;SDS011;66399;52.322;20.980;2023-05-29T07:15:05;6.10;;;2.60;;
77326;SDS011;66399;52.322;20.980;2023-05-29T07:19:11;6.90;;;2.00;;
77326;SDS011;66399;52.322;20.980;2023-05-29T07:23:25;9.50;;;2.20;;
77326;SDS011;66399;52.322;20.980;2023-05-29T07:27:31;5.60;;;2.20;;
77326;SDS011;66399;52.322;20.980;2023-05-29T07:31:36;5.50;;;2.00;;
77326;SDS011;66399;52.322;20.980;2023-05-29T07:53:24;5.10;;;2.10;;
77326;SDS011;66399;52.322;20.980;2023-05-29T07:57:29;7.80;;;2.20;;
77326;SDS011;66399;52.322;20.980;2023-05-29T08:05:45;5.40;;;2.00;;
77326;SDS011;66399;52.322;20.980;2023-05-29T08:09:50;4.50;;;1.40;;
77326;SDS011;66399;52.322;20.980;2023-05-29T08:22:40;2.90;;;1.70;;
77326;SDS011;66399;52.322;20.980;2023-05-29T08:26:45;5.10;;;1.60;;
77326;SDS011;66399;52.322;20.980;2023-05-29T08:35:05;2.80;;;1.30;;
77326;SDS011;66399;52.322;20.980;2023-05-29T08:39:11;3.70;;;1.40;;
77326;SDS011;66399;52.322;20.980;2023-05-29T08:43:24;5.30;;;1.40;;
77326;SDS011;66399;52.322;20.980;2023-05-29T08:47:31;2.70;;;1.30;;
77326;SDS011;66399;52.322;20.980;2023-05-29T08:51:37;6.10;;;1.60;;
77326;SDS011;66399;52.322;20.980;2023-05-29T08:55:47;3.50;;;1.40;;
77326;SDS011;66399;52.322;20.980;2023-05-29T08:59:55;4.20;;;2.10;;
77326;SDS011;66399;52.322;20.980;2023-05-29T09:04:00;4.90;;;1.60;;
77326;SDS011;66399;52.322;20.980;2023-05-29T09:08:11;3.70;;;1.90;;
77326;SDS011;66399;52.322;20.980;2023-05-29T09:12:17;3.10;;;1.60;;
77326;SDS011;66399;52.322;20.980;2023-05-29T09:16:23;6.40;;;1.70;;
77326;SDS011;66399;52.322;20.980;2023-05-29T09:20:31;4.00;;;1.70;;
77326;SDS011;66399;52.322;20.980;2023-05-29T09:24:37;5.20;;;2.00;;
77326;SDS011;66399;52.322;20.980;2023-05-29T09:28:43;2.70;;;1.60;;
77326;SDS011;66399;52.322;20.980;2023-05-29T09:41:32;3.40;;;1.70;;
77326;SDS011;66399;52.322;20.980;2023-05-29T09:45:38;4.50;;;1.70;;
77326;SDS011;66399;52.322;20.980;2023-05-29T09:54:24;6.30;;;2.00;;
77326;SDS011;66399;52.322;20.980;2023-05-29T09:58:32;5.10;;;2.10;;
77326;SDS011;66399;52.322;20.980;2023-05-29T10:02:51;4.70;;;1.60;;
77326;SDS011;66399;52.322;20.980;2023-05-29T10:06:57;5.90;;;2.00;;
77326;SDS011;66399;52.322;20.980;2023-05-29T10:15:20;4.30;;;1.80;;
77326;SDS011;66399;52.322;20.980;2023-05-29T10:19:29;3.40;;;1.90;;
77326;SDS011;66399;52.322;20.980;2023-05-29T10:23:37;4.10;;;1.90;;
77326;SDS011;66399;52.322;20.980;2023-05-29T10:27:43;8.70;;;2.40;;
77326;SDS011;66399;52.322;20.980;2023-05-29T10:31:52;4.00;;;2.00;;
77326;SDS011;66399;52.322;20.980;2023-05-29T10:36:07;4.40;;;1.80;;
77326;SDS011;66399;52.322;20.980;2023-05-29T10:44:39;3.80;;;2.00;;
77326;SDS011;66399;52.322;20.980;2023-05-29T10:48:59;5.30;;;2.20;;
77326;SDS011;66399;52.322;20.980;2023-05-29T10:53:05;5.50;;;2.10;;
77326;SDS011;66399;52.322;20.980;2023-05-29T11:06:02;4.80;;;1.60;;
77326;SDS011;66399;52.322;20.980;2023-05-29T11:10:13;4.10;;;1.70;;
77326;SDS011;66399;52.322;20.980;2023-05-29T11:14:19;5.30;;;1.80;;
77326;SDS011;66399;52.322;20.980;2023-05-29T11:18:25;5.80;;;2.20;;
77326;SDS011;66399;52.322;20.980;2023-05-29T11:22:32;4.40;;;2.10;;
77326;SDS011;66399;52.322;20.980;2023-05-29T11:26:44;7.00;;;2.30;;
77326;SDS011;66399;52.322;20.980;2023-05-29T11:30:51;4.90;;;2.10;;
77326;SDS011;66399;52.322;20.980;2023-05-29T11:35:07;4.60;;;2.10;;
77326;SDS011;66399;52.322;20.980;2023-05-29T11:39:13;4.60;;;2.20;;
77326;SDS011;66399;52.322;20.980;2023-05-29T11:43:18;5.00;;;2.30;;
77326;SDS011;66399;52.322;20.980;2023-05-29T11:52:44;3.70;;;2.00;;
77326;SDS011;66399;52.322;20.980;2023-05-29T11:56:50;4.80;;;2.20;;
77326;SDS011;66399;52.322;20.980;2023-05-29T12:01:11;5.80;;;2.20;;
77326;SDS011;66399;52.322;20.980;2023-05-29T12:05:31;4.40;;;1.90;;
77326;SDS011;66399;52.322;20.980;2023-05-29T12:09:37;6.90;;;2.10;;
77326;SDS011;66399;52.322;20.980;2023-05-29T12:13:42;5.20;;;2.10;;
77326;SDS011;66399;52.322;20.980;2023-05-29T12:18:01;4.00;;;1.90;;
77326;SDS011;66399;52.322;20.980;2023-05-29T12:22:08;5.60;;;2.00;;
77326;SDS011;66399;52.322;20.980;2023-05-29T12:35:17;4.20;;;2.20;;
77326;SDS011;66399;52.322;20.980;2023-05-29T12:44:10;4.60;;;2.20;;
77326;SDS011;66399;52.322;20.980;2023-05-29T12:52:33;4.20;;;1.80;;
77326;SDS011;66399;52.322;20.980;2023-05-29T12:56:38;3.40;;;1.90;;
77326;SDS011;66399;52.322;20.980;2023-05-29T13:09:32;6.60;;;2.20;;
77326;SDS011;66399;52.322;20.980;2023-05-29T13:13:38;4.80;;;2.90;;
77326;SDS011;66399;52.322;20.980;2023-05-29T13:17:53;6.60;;;3.30;;
77326;SDS011;66399;52.322;20.980;2023-05-29T13:21:58;4.70;;;4.00;;
77326;SDS011;66399;52.322;20.980;2023-05-29T13:26:23;6.60;;;6.00;;
77326;SDS011;66399;52.322;20.980;2023-05-29T13:30:29;10.40;;;9.70;;
77326;SDS011;66399;52.322;20.980;2023-05-29T13:34:51;9.40;;;8.60;;
77326;SDS011;66399;52.322;20.980;2023-05-29T13:43:15;9.70;;;8.90;;
77326;SDS011;66399;52.322;20.980;2023-05-29T13:47:21;6.70;;;6.20;;
77326;SDS011;66399;52.322;20.980;2023-05-29T13:51:27;6.70;;;5.20;;
77326;SDS011;66399;52.322;20.980;2023-05-29T13:55:32;6.20;;;5.60;;
77326;SDS011;66399;52.322;20.980;2023-05-29T13:59:37;10.20;;;9.60;;
77326;SDS011;66399;52.322;20.980;2023-05-29T14:03:57;7.00;;;3.70;;
77326;SDS011;66399;52.322;20.980;2023-05-29T14:08:03;7.40;;;4.60;;
77326;SDS011;66399;52.322;20.980;2023-05-29T14:16:23;6.80;;;4.30;;
77326;SDS011;66399;52.322;20.980;2023-05-29T14:20:29;5.70;;;3.90;;
77326;SDS011;66399;52.322;20.980;2023-05-29T14:28:45;6.00;;;5.50;;
77326;SDS011;66399;52.322;20.980;2023-05-29T14:32:51;6.60;;;6.00;;
77326;SDS011;66399;52.322;20.980;2023-05-29T14:41:11;8.50;;;7.70;;
77326;SDS011;66399;52.322;20.980;2023-05-29T14:45:17;7.70;;;7.10;;
77326;SDS011;66399;52.322;20.980;2023-05-29T14:49:26;6.50;;;4.10;;
77326;SDS011;66399;52.322;20.980;2023-05-29T14:53:36;6.40;;;5.80;;
77326;SDS011;66399;52.322;20.980;2023-05-29T14:57:42;5.70;;;3.20;;
77326;SDS011;66399;52.322;20.980;2023-05-29T15:01:52;4.60;;;3.20;;
77326;SDS011;66399;52.322;20.980;2023-05-29T15:05:58;4.10;;;2.70;;
77326;SDS011;66399;52.322;20.980;2023-05-29T15:10:03;4.30;;;2.60;;
77326;SDS011;66399;52.322;20.980;2023-05-29T15:14:18;5.90;;;2.70;;
77326;SDS011;66399;52.322;20.980;2023-05-29T15:18:23;3.60;;;2.30;;
77326;SDS011;66399;52.322;20.980;2023-05-29T15:22:28;4.00;;;2.40;;
77326;SDS011;66399;52.322;20.980;2023-05-29T15:31:10;3.50;;;2.10;;
77326;SDS011;66399;52.322;20.980;2023-05-29T15:35:15;6.30;;;2.60;;
77326;SDS011;66399;52.322;20.980;2023-05-29T15:39:20;4.60;;;2.40;;
77326;SDS011;66399;52.322;20.980;2023-05-29T15:52:06;5.40;;;2.20;;
77326;SDS011;66399;52.322;20.980;2023-05-29T15:56:11;5.00;;;3.10;;
77326;SDS011;66399;52.322;20.980;2023-05-29T16:13:33;5.30;;;2.20;;
77326;SDS011;66399;52.322;20.980;2023-05-29T16:17:40;3.80;;;2.10;;
77326;SDS011;66399;52.322;20.980;2023-05-29T16:21:53;4.40;;;2.00;;
77326;SDS011;66399;52.322;20.980;2023-05-29T16:25:58;5.60;;;2.60;;
77326;SDS011;66399;52.322;20.980;2023-05-29T16:30:04;6.00;;;2.50;;
77326;SDS011;66399;52.322;20.980;2023-05-29T16:34:10;3.70;;;2.10;;
77326;SDS011;66399;52.322;20.980;2023-05-29T16:38:21;6.10;;;2.20;;
77326;SDS011;66399;52.322;20.980;2023-05-29T16:42:26;5.20;;;2.40;;
77326;SDS011;66399;52.322;20.980;2023-05-29T16:46:32;5.70;;;2.60;;
77326;SDS011;66399;52.322;20.980;2023-05-29T16:54:48;5.40;;;2.10;;
77326;SDS011;66399;52.322;20.980;2023-05-29T16:58:53;5.70;;;2.40;;
77326;SDS011;66399;52.322;20.980;2023-05-29T17:07:13;6.20;;;2.50;;
77326;SDS011;66399;52.322;20.980;2023-05-29T17:11:18;5.20;;;2.20;;
77326;SDS011;66399;52.322;20.980;2023-05-29T17:15:33;5.30;;;2.00;;
77326;SDS011;66399;52.322;20.980;2023-05-29T17:19:38;7.40;;;2.90;;
77326;SDS011;66399;52.322;20.980;2023-05-29T17:24:02;4.70;;;2.30;;
77326;SDS011;66399;52.322;20.980;2023-05-29T17:28:10;6.40;;;2.50;;
77326;SDS011;66399;52.322;20.980;2023-05-29T17:36:30;5.70;;;2.80;;
77326;SDS011;66399;52.322;20.980;2023-05-29T17:40:44;5.30;;;2.60;;
77326;SDS011;66399;52.322;20.980;2023-05-29T17:44:54;5.50;;;2.30;;
77326;SDS011;66399;52.322;20.980;2023-05-29T17:53:23;6.00;;;2.30;;
77326;SDS011;66399;52.322;20.980;2023-05-29T17:57:55;6.50;;;2.60;;
77326;SDS011;66399;52.322;20.980;2023-05-29T18:02:24;5.20;;;2.50;;
77326;SDS011;66399;52.322;20.980;2023-05-29T18:06:37;5.80;;;2.80;;
77326;SDS011;66399;52.322;20.980;2023-05-29T18:10:43;5.90;;;2.40;;
77326;SDS011;66399;52.322;20.980;2023-05-29T18:14:49;7.10;;;3.50;;
77326;SDS011;66399;52.322;20.980;2023-05-29T18:18:58;5.30;;;2.60;;
77326;SDS011;66399;52.322;20.980;2023-05-29T18:23:03;6.20;;;2.30;;
77326;SDS011;66399;52.322;20.980;2023-05-29T18:27:11;5.60;;;2.30;;
77326;SDS011;66399;52.322;20.980;2023-05-29T18:31:16;6.00;;;2.30;;
77326;SDS011;66399;52.322;20.980;2023-05-29T18:35:23;7.50;;;2.30;;
77326;SDS011;66399;52.322;20.980;2023-05-29T18:39:28;6.00;;;2.60;;
77326;SDS011;66399;52.322;20.980;2023-05-29T18:43:33;8.30;;;2.30;;
77326;SDS011;66399;52.322;20.980;2023-05-29T18:47:39;5.10;;;2.50;;
77326;SDS011;66399;52.322;20.980;2023-05-29T18:51:45;4.30;;;2.30;;
77326;SDS011;66399;52.322;20.980;2023-05-29T18:55:50;6.00;;;2.30;;
77326;SDS011;66399;52.322;20.980;2023-05-29T18:59:56;6.40;;;2.50;;
77326;SDS011;66399;52.322;20.980;2023-05-29T19:04:01;5.90;;;2.50;;
77326;SDS011;66399;52.322;20.980;2023-05-29T19:08:07;5.00;;;1.90;;
77326;SDS011;66399;52.322;20.980;2023-05-29T19:12:14;6.30;;;2.70;;
77326;SDS011;66399;52.322;20.980;2023-05-29T19:16:19;5.10;;;2.30;;
77326;SDS011;66399;52.322;20.980;2023-05-29T19:20:25;8.80;;;2.40;;
77326;SDS011;66399;52.322;20.980;2023-05-29T19:24:31;5.80;;;2.10;;
77326;SDS011;66399;52.322;20.980;2023-05-29T19:28:36;4.40;;;2.30;;
77326;SDS011;66399;52.322;20.980;2023-05-29T19:32:41;6.20;;;2.80;;
77326;SDS011;66399;52.322;20.980;2023-05-29T19:36:47;4.90;;;2.10;;
77326;SDS011;66399;52.322;20.980;2023-05-29T19:40:53;8.70;;;2.60;;
77326;SDS011;66399;52.322;20.980;2023-05-29T19:44:59;4.50;;;2.20;;
77326;SDS011;66399;52.322;20.980;2023-05-29T19:49:04;7.00;;;2.10;;
77326;SDS011;66399;52.322;20.980;2023-05-29T19:53:10;4.90;;;2.10;;
77326;SDS011;66399;52.322;20.980;2023-05-29T19:57:17;3.80;;;2.20;;
77326;SDS011;66399;52.322;20.980;2023-05-29T20:01:23;5.20;;;2.50;;
77326;SDS011;66399;52.322;20.980;2023-05-29T20:05:29;4.90;;;2.10;;
77326;SDS011;66399;52.322;20.980;2023-05-29T20:09:34;6.00;;;2.30;;
77326;SDS011;66399;52.322;20.980;2023-05-29T20:13:40;5.10;;;2.20;;
77326;SDS011;66399;52.322;20.980;2023-05-29T20:17:45;7.80;;;2.20;;
77326;SDS011;66399;52.322;20.980;2023-05-29T20:21:51;6.40;;;2.30;;
77326;SDS011;66399;52.322;20.980;2023-05-29T20:25:56;6.40;;;2.50;;
77326;SDS011;66399;52.322;20.980;2023-05-29T20:30:01;5.30;;;2.20;;
77326;SDS011;66399;52.322;20.980;2023-05-29T20:34:07;5.80;;;2.50;;
77326;SDS011;66399;52.322;20.980;2023-05-29T20:38:13;4.70;;;2.30;;
77326;SDS011;66399;52.322;20.980;2023-05-29T20:42:19;5.30;;;2.70;;
77326;SDS011;66399;52.322;20.980;2023-05-29T20:46:25;4.40;;;2.00;;
77326;SDS011;66399;52.322;20.980;2023-05-29T20:50:31;6.10;;;2.40;;
77326;SDS011;66399;52.322;20.980;2023-05-29T20:54:36;5.30;;;2.40;;
77326;SDS011;66399;52.322;20.980;2023-05-29T20:58:42;5.30;;;2.50;;
77326;SDS011;66399;52.322;20.980;2023-05-29T21:02:47;6.30;;;2.50;;
77326;SDS011;66399;52.322;20.980;2023-05-29T21:06:52;6.00;;;2.70;;
77326;SDS011;66399;52.322;20.980;2023-05-29T21:10:58;5.40;;;2.70;;
77326;SDS011;66399;52.322;20.980;2023-05-29T21:15:04;5.00;;;2.40;;
77326;SDS011;66399;52.322;20.980;2023-05-29T21:19:09;5.50;;;2.70;;
77326;SDS011;66399;52.322;20.980;2023-05-29T21:23:15;5.00;;;2.40;;
77326;SDS011;66399;52.322;20.980;2023-05-29T21:27:20;6.10;;;2.70;;
77326;SDS011;66399;52.322;20.980;2023-05-29T21:31:25;6.30;;;2.60;;
77326;SDS011;66399;52.322;20.980;2023-05-29T21:35:33;5.70;;;2.50;;
77326;SDS011;66399;52.322;20.980;2023-05-29T21:39:40;5.90;;;2.50;;
77326;SDS011;66399;52.322;20.980;2023-05-29T21:43:46;5.80;;;2.10;;
77326;SDS011;66399;52.322;20.980;2023-05-29T21:47:51;6.80;;;2.30;;
77326;SDS011;66399;52.322;20.980;2023-05-29T21:51:57;6.80;;;2.60;;
77326;SDS011;66399;52.322;20.980;2023-05-29T21:56:03;7.50;;;2.40;;
77326;SDS011;66399;52.322;20.980;2023-05-29T22:00:09;6.10;;;2.50;;
77326;SDS011;66399;52.322;20.980;2023-05-29T22:04:16;6.60;;;3.00;;
77326;SDS011;66399;52.322;20.980;2023-05-29T22:08:21;9.00;;;2.40;;
77326;SDS011;66399;52.322;20.980;2023-05-29T22:12:27;5.00;;;2.40;;
77326;SDS011;66399;52.322;20.980;2023-05-29T22:16:32;5.80;;;2.40;;
77326;SDS011;66399;52.322;20.980;2023-05-29T22:20:38;7.60;;;2.60;;
77326;SDS011;66399;52.322;20.980;2023-05-29T22:24:44;9.50;;;2.50;;
77326;SDS011;66399;52.322;20.980;2023-05-29T22:28:52;4.70;;;2.20;;
77326;SDS011;66399;52.322;20.980;2023-05-29T22:32:58;5.00;;;2.30;;
77326;SDS011;66399;52.322;20.980;2023-05-29T22:37:05;5.80;;;2.20;;
77326;SDS011;66399;52.322;20.980;2023-05-29T22:41:10;5.40;;;2.10;;
77326;SDS011;66399;52.322;20.980;2023-05-29T22:45:15;9.40;;;2.70;;
77326;SDS011;66399;52.322;20.980;2023-05-29T22:49:21;6.00;;;2.60;;
77326;SDS011;66399;52.322;20.980;2023-05-29T22:53:26;7.00;;;2.30;;
77326;SDS011;66399;52.322;20.980;2023-05-29T22:57:31;6.60;;;1.90;;
77326;SDS011;66399;52.322;20.980;2023-05-29T23:01:37;6.60;;;1.90;;
77326;SDS011;66399;52.322;20.980;2023-05-29T23:05:44;7.60;;;2.20;;
77326;SDS011;66399;52.322;20.980;2023-05-29T23:09:50;4.70;;;1.70;;
77326;SDS011;66399;52.322;20.980;2023-05-29T23:13:55;5.50;;;1.80;;
77326;SDS011;66399;52.322;20.980;2023-05-29T23:18:00;6.10;;;1.90;;
77326;SDS011;66399;52.322;20.980;2023-05-29T23:22:06;5.00;;;2.10;;
77326;SDS011;66399;52.322;20.980;2023-05-29T23:26:11;6.90;;;2.20;;
77326;SDS011;66399;52.322;20.980;2023-05-29T23:30:17;4.90;;;1.90;;
77326;SDS011;66399;52.322;20.980;2023-05-29T23:34:22;5.00;;;1.70;;
77326;SDS011;66399;52.322;20.980;2023-05-29T23:38:27;7.80;;;1.70;;
77326;SDS011;66399;52.322;20.980;2023-05-29T23:42:33;5.40;;;1.70;;
77326;SDS011;66399;52.322;20.980;2023-05-29T23:46:38;4.60;;;1.50;;
77326;SDS011;66399;52.322;20.980;2023-05-29T23:50:44;7.30;;;1.70;;
77326;SDS011;66399;52.322;20.980;2023-05-29T23:54:51;3.30;;;1.60;;
77326;SDS011;66399;52.322;20.980;2023-05-29T23:58:57;4.50;;;1.70;;
